Time;durP1;ratioP1;P1;durP2;ratioP2;P2;SDS_P1;SDS_P2;PMS_P1;PMS_P2;Temp;Humidity;BMP_temperature;BMP_pressure;BME280_temperature;BME280_humidity;BME280_pressure;Samples;Min_cycle;Max_cycle;Signal;HPM_P1;HPM_P2
2023/09/03 00:01:54;;;;;;;10.48;8.63;;;;;;;;;;6313292;28;20128;-69
2023/09/03 00:04:56;;;;;;;11.10;8.85;;;;;;;;;;6312936;28;20047;-69
2023/09/03 00:07:59;;;;;;;10.68;6.55;;;;;;;;;;6311328;28;20051;-69
2023/09/03 00:11:03;;;;;;;;;;;;;;;;;;6309949;28;20113;-69
2023/09/03 00:14:05;;;;;;;9.82;6.50;;;;;;;;;;6316309;28;20028;-70
2023/09/03 00:17:10;;;;;;;7.93;6.35;;;;;;;;;;6320661;28;20043;-69
2023/09/03 00:20:13;;;;;;;13.30;6.63;;;;;;;;;;6312536;28;20068;-69
2023/09/03 00:23:18;;;;;;;9.25;5.78;;;;;;;;;;6311971;28;20078;-69
2023/09/03 00:26:24;;;;;;;12.68;8.18;;;;;;;;;;6319218;28;20052;-70
2023/09/03 00:29:30;;;;;;;12.20;10.88;;;;;;;;;;6307991;28;20048;-70
2023/09/03 00:32:32;;;;;;;10.90;9.43;;;;;;;;;;6317726;28;20040;-70
2023/09/03 00:35:38;;;;;;;9.95;6.70;;;;;;;;;;6311602;28;20040;-68
2023/09/03 00:38:41;;;;;;;9.98;8.15;;;;;;;;;;6316634;28;20052;-69
2023/09/03 00:41:43;;;;;;;12.18;9.10;;;;;;;;;;6309965;28;20144;-69
2023/09/03 00:44:45;;;;;;;13.93;7.57;;;;;;;;;;6313605;28;20052;-69
2023/09/03 00:47:48;;;;;;;9.98;7.82;;;;;;;;;;6311954;28;20129;-70
2023/09/03 00:50:51;;;;;;;11.20;10.10;;;;;;;;;;6309829;28;20048;-69
2023/09/03 00:53:55;;;;;;;11.25;8.23;;;;;;;;;;6311252;28;20040;-70
2023/09/03 00:56:57;;;;;;;7.93;6.95;;;;;;;;;;6319914;28;20059;-69
2023/09/03 00:59:59;;;;;;;9.45;8.10;;;;;;;;;;6309597;28;20122;-69
2023/09/03 01:03:03;;;;;;;11.48;7.30;;;;;;;;;;6312399;28;20047;-69
2023/09/03 01:06:06;;;;;;;9.13;8.18;;;;;;;;;;6319982;28;20046;-69
2023/09/03 01:09:10;;;;;;;7.60;5.32;;;;;;;;;;6313568;28;20121;-69
2023/09/03 01:12:12;;;;;;;6.95;4.88;;;;;;;;;;6323779;28;20047;-68
2023/09/03 01:15:22;;;;;;;8.57;7.68;;;;;;;;;;6312565;28;20051;-69
2023/09/03 01:18:26;;;;;;;7.53;6.57;;;;;;;;;;6320561;28;20047;-69
2023/09/03 01:21:34;;;;;;;7.20;5.03;;;;;;;;;;6319658;28;20144;-68
2023/09/03 01:24:58;;;;;;;7.88;4.63;;;;;;;;;;6315461;28;20044;-68
2023/09/03 01:28:20;;;;;;;5.90;4.15;;;;;;;;;;6300751;28;20040;-68
2023/09/03 01:31:23;;;;;;;7.15;4.40;;;;;;;;;;6308745;28;20051;-67
2023/09/03 01:34:26;;;;;;;6.10;3.80;;;;;;;;;;6315258;28;20185;-68
2023/09/03 01:37:28;;;;;;;7.70;5.68;;;;;;;;;;6306031;28;20209;-69
2023/09/03 01:40:30;;;;;;;8.00;5.57;;;;;;;;;;6310126;28;20529;-68
2023/09/03 01:43:32;;;;;;;6.78;4.97;;;;;;;;;;6310184;28;20040;-69
2023/09/03 01:46:50;;;;;;;8.98;7.68;;;;;;;;;;6311379;28;20101;-68
2023/09/03 01:50:07;;;;;;;7.95;6.53;;;;;;;;;;6308933;28;20864;-69
2023/09/03 01:53:20;;;;;;;11.50;9.82;;;;;;;;;;6296298;28;20032;-68
2023/09/03 01:56:22;;;;;;;9.32;6.90;;;;;;;;;;6291083;28;20040;-68
2023/09/03 01:59:45;;;;;;;10.45;7.40;;;;;;;;;;6292784;28;20651;-68
2023/09/03 02:02:49;;;;;;;10.13;7.75;;;;;;;;;;6309440;28;20051;-68
2023/09/03 02:05:51;;;;;;;14.48;12.07;;;;;;;;;;6310087;28;20059;-68
2023/09/03 02:08:53;;;;;;;10.15;7.63;;;;;;;;;;6308699;28;20838;-68
2023/09/03 02:11:55;;;;;;;9.93;8.93;;;;;;;;;;6309295;28;20594;-69
2023/09/03 02:14:57;;;;;;;10.52;7.55;;;;;;;;;;6309586;28;20440;-68
2023/09/03 02:17:59;;;;;;;11.13;7.85;;;;;;;;;;6306070;28;20076;-67
2023/09/03 02:21:01;;;;;;;12.95;11.63;;;;;;;;;;6305721;28;20045;-67
2023/09/03 02:24:04;;;;;;;14.27;10.32;;;;;;;;;;6308940;28;20039;-67
2023/09/03 02:27:06;;;;;;;9.63;6.90;;;;;;;;;;6310485;28;20127;-67
2023/09/03 02:30:08;;;;;;;10.50;7.82;;;;;;;;;;6308602;28;20135;-67
2023/09/03 02:33:10;;;;;;;10.77;8.77;;;;;;;;;;6310317;28;20044;-67
2023/09/03 02:36:13;;;;;;;13.43;10.77;;;;;;;;;;6307926;28;20047;-67
2023/09/03 02:39:15;;;;;;;10.20;7.55;;;;;;;;;;6315193;28;20055;-67
2023/09/03 02:42:20;;;;;;;11.00;7.60;;;;;;;;;;6309111;28;20047;-67
2023/09/03 02:45:22;;;;;;;11.77;10.57;;;;;;;;;;6308556;28;20127;-67
2023/09/03 02:48:24;;;;;;;11.85;10.02;;;;;;;;;;6309450;28;20209;-68
2023/09/03 02:51:26;;;;;;;12.27;10.50;;;;;;;;;;6310563;28;20082;-68
2023/09/03 02:54:28;;;;;;;10.45;7.28;;;;;;;;;;6310304;28;20055;-67
2023/09/03 02:57:30;;;;;;;10.82;6.30;;;;;;;;;;6318840;28;20055;-67
2023/09/03 03:00:35;;;;;;;11.38;7.53;;;;;;;;;;6313115;28;20052;-67
2023/09/03 03:03:37;;;;;;;13.20;9.88;;;;;;;;;;6313483;28;20079;-68
2023/09/03 03:06:39;;;;;;;11.50;10.30;;;;;;;;;;6314133;28;20126;-67
2023/09/03 03:09:41;;;;;;;13.88;11.60;;;;;;;;;;6325242;28;20086;-68
2023/09/03 03:12:44;;;;;;;9.95;6.30;;;;;;;;;;6293535;28;20036;-68
2023/09/03 03:15:51;;;;;;;14.10;11.73;;;;;;;;;;6324316;28;20044;-67
2023/09/03 03:18:54;;;;;;;11.13;10.02;;;;;;;;;;6313004;28;20044;-67
2023/09/03 03:22:01;;;;;;;14.57;10.23;;;;;;;;;;6319399;28;20048;-67
2023/09/03 03:25:03;;;;;;;15.32;7.82;;;;;;;;;;6298580;28;20634;-67
2023/09/03 03:28:08;;;;;;;13.57;11.77;;;;;;;;;;6313130;28;20347;-67
2023/09/03 03:31:20;;;;;;;12.10;10.90;;;;;;;;;;6318611;28;20052;-67
2023/09/03 03:34:25;;;;;;;14.18;12.77;;;;;;;;;;6318764;28;20048;-67
2023/09/03 03:37:31;;;;;;;12.27;7.57;;;;;;;;;;6307533;28;20048;-67
2023/09/03 03:40:33;;;;;;;12.65;9.90;;;;;;;;;;6313057;28;20044;-67
2023/09/03 03:43:43;;;;;;;11.90;8.77;;;;;;;;;;6312642;28;20442;-67
2023/09/03 03:46:45;;;;;;;14.60;12.20;;;;;;;;;;6319815;28;20035;-67
2023/09/03 03:49:47;;;;;;;13.93;9.60;;;;;;;;;;6310403;28;20048;-67
2023/09/03 03:52:49;;;;;;;15.57;12.25;;;;;;;;;;6311751;28;20036;-67
2023/09/03 03:56:00;;;;;;;14.27;9.38;;;;;;;;;;6310602;28;20043;-67
2023/09/03 03:59:02;;;;;;;15.65;10.80;;;;;;;;;;6306844;28;20051;-67
2023/09/03 04:14:16;;;;;;;14.27;8.70;;;;;;;;;;6369831;27;20824;-72
2023/09/03 04:17:18;;;;;;;12.48;9.07;;;;;;;;;;6329094;28;20051;-71
2023/09/03 04:20:20;;;;;;;12.95;8.77;;;;;;;;;;6341439;27;20158;-72
2023/09/03 04:23:23;;;;;;;12.95;8.48;;;;;;;;;;6331726;28;20043;-72
2023/09/03 04:26:25;;;;;;;13.70;8.40;;;;;;;;;;6339861;28;20047;-71
2023/09/03 04:29:30;;;;;;;14.63;9.43;;;;;;;;;;6299817;28;20081;-72
2023/09/03 04:32:32;;;;;;;12.73;8.05;;;;;;;;;;6314062;28;20040;-72
2023/09/03 04:35:35;;;;;;;11.70;8.85;;;;;;;;;;6313993;28;20600;-72
2023/09/03 04:38:38;;;;;;;14.35;8.70;;;;;;;;;;6336420;28;20694;-71
2023/09/03 04:41:40;;;;;;;11.27;8.15;;;;;;;;;;6314266;28;20119;-71
2023/09/03 04:44:44;;;;;;;12.32;9.48;;;;;;;;;;6315256;28;20686;-71
2023/09/03 04:47:46;;;;;;;15.18;9.52;;;;;;;;;;6316520;28;20736;-72
2023/09/03 04:50:49;;;;;;;13.73;9.10;;;;;;;;;;6319905;28;20040;-70
2023/09/03 04:53:51;;;;;;;15.25;7.93;;;;;;;;;;6314428;28;20050;-70
2023/09/03 04:56:55;;;;;;;13.65;8.38;;;;;;;;;;6314438;28;20448;-71
2023/09/03 04:59:57;;;;;;;23.17;8.77;;;;;;;;;;6319374;28;20119;-72
2023/09/03 05:03:01;;;;;;;14.00;10.77;;;;;;;;;;6336737;27;20066;-72
2023/09/03 05:06:04;;;;;;;15.43;10.70;;;;;;;;;;6298949;28;20056;-72
2023/09/03 05:09:06;;;;;;;17.23;10.18;;;;;;;;;;6318722;28;20050;-71
2023/09/03 05:12:08;;;;;;;14.88;12.05;;;;;;;;;;6325256;28;20116;-72
2023/09/03 05:15:11;;;;;;;20.50;12.32;;;;;;;;;;6307202;28;20052;-72
2023/09/03 05:18:16;;;;;;;22.00;12.57;;;;;;;;;;6282034;28;20040;-71
2023/09/03 05:21:24;;;;;;;17.83;11.60;;;;;;;;;;6308325;28;20060;-72
2023/09/03 05:24:26;;;;;;;17.77;12.60;;;;;;;;;;6298162;28;20063;-72
2023/09/03 05:27:29;;;;;;;21.67;13.65;;;;;;;;;;6277704;28;20059;-72
2023/09/03 05:30:33;;;;;;;16.17;11.25;;;;;;;;;;6308779;28;20039;-73
2023/09/03 05:33:39;;;;;;;14.25;11.43;;;;;;;;;;6274253;28;20040;-71
2023/09/03 05:36:42;;;;;;;13.30;10.93;;;;;;;;;;6310379;28;20055;-71
2023/09/03 05:39:44;;;;;;;13.80;10.65;;;;;;;;;;6307572;28;20047;-71
2023/09/03 05:42:47;;;;;;;13.07;9.18;;;;;;;;;;6285131;28;20054;-71
2023/09/03 05:45:50;;;;;;;13.10;9.15;;;;;;;;;;6308673;28;20059;-71
2023/09/03 05:48:52;;;;;;;11.13;8.90;;;;;;;;;;6293499;28;20036;-73
2023/09/03 05:51:56;;;;;;;12.70;9.65;;;;;;;;;;6256474;28;20097;-72
2023/09/03 05:54:58;;;;;;;11.82;9.10;;;;;;;;;;6295826;28;20052;-71
2023/09/03 05:58:01;;;;;;;15.63;9.52;;;;;;;;;;6298342;28;20044;-68
2023/09/03 06:01:07;;;;;;;13.13;8.85;;;;;;;;;;6306811;28;20056;-65
2023/09/03 06:04:14;;;;;;;11.73;8.65;;;;;;;;;;6310495;28;20554;-65
2023/09/03 06:07:17;;;;;;;12.07;9.20;;;;;;;;;;6302877;28;20055;-65
2023/09/03 06:10:21;;;;;;;14.35;9.32;;;;;;;;;;6311006;28;20775;-64
2023/09/03 06:13:23;;;;;;;13.98;8.25;;;;;;;;;;6311081;28;20075;-63
2023/09/03 06:16:25;;;;;;;11.70;9.02;;;;;;;;;;6311662;28;20051;-64
2023/09/03 06:19:27;;;;;;;11.05;7.90;;;;;;;;;;6310954;28;20493;-64
2023/09/03 06:22:30;;;;;;;12.38;7.57;;;;;;;;;;6320048;28;20055;-75
2023/09/03 06:25:32;;;;;;;13.00;8.00;;;;;;;;;;6315882;28;20434;-73
2023/09/03 06:28:34;;;;;;;10.50;7.85;;;;;;;;;;6313435;28;20051;-64
2023/09/03 06:31:36;;;;;;;13.70;7.57;;;;;;;;;;6294417;28;20177;-65
2023/09/03 06:34:38;;;;;;;9.35;6.97;;;;;;;;;;6312030;28;20047;-72
2023/09/03 06:37:46;;;;;;;10.40;7.90;;;;;;;;;;6313233;28;20040;-71
2023/09/03 06:40:49;;;;;;;9.38;7.28;;;;;;;;;;6312074;28;20468;-66
2023/09/03 06:43:51;;;;;;;10.52;7.63;;;;;;;;;;6310178;28;20043;-66
2023/09/03 06:46:54;;;;;;;10.55;7.82;;;;;;;;;;6311591;28;20127;-66
2023/09/03 06:49:59;;;;;;;11.35;7.82;;;;;;;;;;6309101;28;20048;-70
2023/09/03 06:53:06;;;;;;;12.10;7.50;;;;;;;;;;6311284;28;20047;-64
2023/09/03 06:56:18;;;;;;;10.27;7.70;;;;;;;;;;6316730;28;20101;-73
2023/09/03 06:59:23;;;;;;;10.05;7.22;;;;;;;;;;6307080;28;20060;-73
2023/09/03 07:02:35;;;;;;;15.18;6.93;;;;;;;;;;6306949;28;20599;-73
2023/09/03 07:05:38;;;;;;;11.45;6.55;;;;;;;;;;6295670;28;20035;-73
2023/09/03 07:08:40;;;;;;;10.23;6.30;;;;;;;;;;6311535;28;20173;-71
2023/09/03 07:11:42;;;;;;;8.95;5.93;;;;;;;;;;6295469;28;20051;-71
2023/09/03 07:14:45;;;;;;;8.65;6.00;;;;;;;;;;6312024;28;20055;-70
2023/09/03 07:17:49;;;;;;;7.57;6.28;;;;;;;;;;6303238;28;20394;-70
2023/09/03 07:21:05;;;;;;;11.77;5.72;;;;;;;;;;6327052;28;20051;-71
2023/09/03 07:24:07;;;;;;;;;;;;;;;;;;6297343;28;20052;-71
2023/09/03 07:27:10;;;;;;;8.38;5.93;;;;;;;;;;6312206;28;20550;-71
2023/09/03 07:30:12;;;;;;;7.95;5.53;;;;;;;;;;6311561;28;20052;-71
2023/09/03 07:33:14;;;;;;;10.30;6.43;;;;;;;;;;6312025;28;20075;-71
2023/09/03 07:36:19;;;;;;;8.60;5.90;;;;;;;;;;6293504;28;20036;-71
2023/09/03 07:39:21;;;;;;;9.25;5.32;;;;;;;;;;6311815;28;20052;-70
2023/09/03 07:42:28;;;;;;;8.73;6.38;;;;;;;;;;6309649;28;20051;-71
2023/09/03 07:45:30;;;;;;;9.48;6.25;;;;;;;;;;6310945;28;20040;-71
2023/09/03 07:48:32;;;;;;;9.55;5.78;;;;;;;;;;6310233;28;20040;-71
2023/09/03 07:51:34;;;;;;;6.68;4.88;;;;;;;;;;6310917;28;20050;-71
2023/09/03 07:54:37;;;;;;;12.40;5.63;;;;;;;;;;6309695;28;20142;-71
2023/09/03 07:57:39;;;;;;;8.02;5.18;;;;;;;;;;6309577;28;20052;-71
2023/09/03 08:00:41;;;;;;;8.32;4.82;;;;;;;;;;6309684;28;20185;-72
2023/09/03 08:03:43;;;;;;;6.82;5.18;;;;;;;;;;6311200;28;20044;-71
2023/09/03 08:06:49;;;;;;;6.88;4.93;;;;;;;;;;6310953;28;20052;-71
2023/09/03 08:09:52;;;;;;;7.22;5.35;;;;;;;;;;6309776;28;20510;-71
2023/09/03 08:12:54;;;;;;;6.93;4.90;;;;;;;;;;6310198;28;20093;-71
2023/09/03 08:15:56;;;;;;;9.25;4.07;;;;;;;;;;6310279;28;20201;-72
2023/09/03 08:18:58;;;;;;;9.63;4.72;;;;;;;;;;6309898;28;20040;-71
2023/09/03 08:22:00;;;;;;;6.00;4.15;;;;;;;;;;6311524;28;20036;-71
2023/09/03 08:25:03;;;;;;;6.00;4.07;;;;;;;;;;6309943;28;20071;-72
2023/09/03 08:28:07;;;;;;;6.88;4.03;;;;;;;;;;6307762;28;20048;-73
2023/09/03 08:31:09;;;;;;;6.35;3.72;;;;;;;;;;6297691;28;20911;-72
2023/09/03 08:34:11;;;;;;;6.80;3.85;;;;;;;;;;6326356;28;20048;-72
2023/09/03 08:37:13;;;;;;;8.57;5.53;;;;;;;;;;6296471;28;20055;-72
2023/09/03 08:40:17;;;;;;;6.20;4.25;;;;;;;;;;6288925;28;20186;-72
2023/09/03 08:43:24;;;;;;;6.30;3.88;;;;;;;;;;6306004;28;20549;-72
2023/09/03 08:46:30;;;;;;;8.52;4.63;;;;;;;;;;6293033;28;20125;-72
2023/09/03 08:49:33;;;;;;;5.95;4.30;;;;;;;;;;6311926;28;20048;-72
2023/09/03 08:52:37;;;;;;;5.95;4.38;;;;;;;;;;6300304;28;20138;-73
2023/09/03 08:55:40;;;;;;;7.20;3.53;;;;;;;;;;6279379;28;20133;-72
2023/09/03 08:58:42;;;;;;;7.07;4.63;;;;;;;;;;6313820;28;20046;-71
2023/09/03 09:01:52;;;;;;;6.60;3.40;;;;;;;;;;6313048;28;20410;-71
2023/09/03 09:04:56;;;;;;;6.80;4.45;;;;;;;;;;6297192;28;20040;-72
2023/09/03 09:08:00;;;;;;;7.22;3.85;;;;;;;;;;6293865;28;20044;-63
2023/09/03 09:11:04;;;;;;;7.63;4.28;;;;;;;;;;6297827;28;20043;-76
2023/09/03 09:14:13;;;;;;;5.25;3.25;;;;;;;;;;6304179;28;20126;-78
2023/09/03 09:17:15;;;;;;;8.07;4.63;;;;;;;;;;6284669;28;20137;-66
2023/09/03 09:20:18;;;;;;;7.47;4.35;;;;;;;;;;6296850;28;20679;-66
2023/09/03 09:23:22;;;;;;;6.35;3.80;;;;;;;;;;6313656;28;20048;-66
2023/09/03 09:26:30;;;;;;;8.15;5.30;;;;;;;;;;6313369;28;20059;-66
2023/09/03 09:29:32;;;;;;;7.68;4.35;;;;;;;;;;6313790;28;20143;-66
2023/09/03 09:32:34;;;;;;;6.25;4.07;;;;;;;;;;6314859;28;20136;-66
2023/09/03 09:35:36;;;;;;;6.03;3.95;;;;;;;;;;6312234;28;20055;-66
2023/09/03 09:38:39;;;;;;;8.43;3.90;;;;;;;;;;6312296;28;20070;-66
2023/09/03 09:41:41;;;;;;;6.15;4.72;;;;;;;;;;6311874;28;20058;-66
2023/09/03 09:44:52;;;;;;;6.15;4.03;;;;;;;;;;6312712;28;20052;-66
2023/09/03 09:48:07;;;;;;;6.47;4.00;;;;;;;;;;6311551;28;20950;-66
2023/09/03 09:51:11;;;;;;;7.47;3.95;;;;;;;;;;6311434;28;20048;-66
2023/09/03 09:54:13;;;;;;;5.30;3.72;;;;;;;;;;6313189;28;20055;-66
2023/09/03 09:57:17;;;;;;;5.03;3.92;;;;;;;;;;6313919;28;20048;-66
2023/09/03 10:00:36;;;;;;;7.18;3.45;;;;;;;;;;6313201;28;20040;-66
2023/09/03 10:03:46;;;;;;;5.45;3.63;;;;;;;;;;6313361;28;20671;-66
2023/09/03 10:06:48;;;;;;;6.03;3.50;;;;;;;;;;6313281;28;20044;-66
2023/09/03 10:09:50;;;;;;;8.30;4.38;;;;;;;;;;6306794;28;20096;-67
2023/09/03 10:12:53;;;;;;;5.82;4.05;;;;;;;;;;6312720;28;20044;-66
2023/09/03 10:15:55;;;;;;;5.57;4.07;;;;;;;;;;6313341;28;20056;-66
2023/09/03 10:19:02;;;;;;;7.60;3.50;;;;;;;;;;6294313;28;20047;-66
2023/09/03 10:22:06;;;;;;;5.38;3.70;;;;;;;;;;6313416;28;20616;-65
2023/09/03 10:25:14;;;;;;;5.65;3.83;;;;;;;;;;6305047;28;20054;-66
2023/09/03 10:28:20;;;;;;;5.75;3.75;;;;;;;;;;6294570;28;20040;-65
2023/09/03 10:31:23;;;;;;;4.88;2.97;;;;;;;;;;6295855;28;20056;-65
2023/09/03 10:34:25;;;;;;;11.05;3.50;;;;;;;;;;6313305;28;20067;-64
2023/09/03 10:37:38;;;;;;;5.97;3.28;;;;;;;;;;6313568;28;20051;-65
2023/09/03 10:40:40;;;;;;;6.43;3.63;;;;;;;;;;6294973;28;20055;-65
2023/09/03 10:43:43;;;;;;;4.82;2.88;;;;;;;;;;6312634;28;20036;-65
2023/09/03 10:47:01;;;;;;;6.18;3.60;;;;;;;;;;6312431;28;20868;-65
2023/09/03 10:50:07;;;;;;;6.50;3.50;;;;;;;;;;6308499;28;20272;-65
2023/09/03 10:53:39;;;;;;;5.68;4.53;;;;;;;;;;6313366;28;20044;-71
2023/09/03 10:57:06;;;;;;;6.30;3.78;;;;;;;;;;6311927;28;20770;-70
2023/09/03 11:00:15;;;;;;;5.35;3.63;;;;;;;;;;6309761;28;20165;-66
2023/09/03 11:03:21;;;;;;;5.80;3.45;;;;;;;;;;6312107;28;20048;-67
2023/09/03 11:06:31;;;;;;;5.18;3.20;;;;;;;;;;6310452;28;20566;-67
2023/09/03 11:09:33;;;;;;;5.25;3.40;;;;;;;;;;6311811;28;20482;-67
2023/09/03 11:12:35;;;;;;;10.35;3.85;;;;;;;;;;6300081;28;20048;-66
2023/09/03 11:15:38;;;;;;;7.25;3.88;;;;;;;;;;6311484;28;20040;-67
2023/09/03 11:18:46;;;;;;;5.20;3.45;;;;;;;;;;6293580;28;20131;-66
2023/09/03 11:21:48;;;;;;;5.82;4.07;;;;;;;;;;6309394;28;20047;-67
2023/09/03 11:24:51;;;;;;;6.03;3.58;;;;;;;;;;6311207;28;20052;-67
2023/09/03 11:27:53;;;;;;;4.68;3.20;;;;;;;;;;6310648;28;20705;-67
2023/09/03 11:30:59;;;;;;;8.40;3.95;;;;;;;;;;6311868;28;20054;-67
2023/09/03 11:34:16;;;;;;;6.07;3.70;;;;;;;;;;6309132;28;20189;-67
2023/09/03 11:37:18;;;;;;;5.43;3.70;;;;;;;;;;6310327;28;20186;-67
2023/09/03 11:40:26;;;;;;;5.47;2.78;;;;;;;;;;6300642;28;20622;-67
2023/09/03 11:43:30;;;;;;;8.13;3.25;;;;;;;;;;6297548;28;20126;-67
2023/09/03 11:46:32;;;;;;;6.55;3.83;;;;;;;;;;6299251;28;20349;-67
2023/09/03 11:49:34;;;;;;;4.50;3.00;;;;;;;;;;6298871;28;20526;-66
2023/09/03 11:52:36;;;;;;;6.43;3.50;;;;;;;;;;6310937;28;20048;-66
2023/09/03 11:55:42;;;;;;;5.78;2.97;;;;;;;;;;6295386;28;20063;-67
2023/09/03 11:58:58;;;;;;;5.22;2.80;;;;;;;;;;6311258;28;20040;-66
2023/09/03 12:02:02;;;;;;;11.05;6.45;;;;;;;;;;6292818;28;20642;-66
2023/09/03 12:05:04;;;;;;;;;;;;;;;;;;6303078;28;20052;-66
2023/09/03 12:08:08;;;;;;;5.47;3.58;;;;;;;;;;6304484;28;20604;-66
2023/09/03 12:11:11;;;;;;;5.25;3.75;;;;;;;;;;6304899;28;20051;-66
2023/09/03 12:14:27;;;;;;;5.50;2.88;;;;;;;;;;6309686;28;20117;-66
2023/09/03 12:17:29;;;;;;;7.35;3.58;;;;;;;;;;6307419;28;20731;-66
2023/09/03 12:20:35;;;;;;;6.00;3.05;;;;;;;;;;6308214;28;20051;-67
2023/09/03 12:23:44;;;;;;;5.63;3.58;;;;;;;;;;6308291;28;20055;-66
2023/09/03 12:26:47;;;;;;;5.88;3.40;;;;;;;;;;6313519;28;20051;-66
2023/09/03 12:29:54;;;;;;;5.68;3.60;;;;;;;;;;6310145;28;20048;-66
2023/09/03 12:32:56;;;;;;;5.32;3.30;;;;;;;;;;6293060;28;20059;-66
2023/09/03 12:36:13;;;;;;;4.95;2.78;;;;;;;;;;6315307;28;20058;-67
2023/09/03 12:39:15;;;;;;;5.07;2.63;;;;;;;;;;6314962;28;20055;-66
2023/09/03 12:42:18;;;;;;;5.88;2.90;;;;;;;;;;6316352;28;20063;-65
2023/09/03 12:45:20;;;;;;;5.00;3.17;;;;;;;;;;6320450;28;20044;-66
2023/09/03 12:48:22;;;;;;;4.80;3.17;;;;;;;;;;6328129;28;20123;-66
2023/09/03 12:51:24;;;;;;;4.93;3.22;;;;;;;;;;6314332;28;20142;-66
2023/09/03 12:54:27;;;;;;;5.32;3.60;;;;;;;;;;6316748;28;20749;-65
2023/09/03 12:57:30;;;;;;;5.78;3.28;;;;;;;;;;6316052;28;20048;-70
2023/09/03 13:00:32;;;;;;;4.30;3.03;;;;;;;;;;6317074;28;20056;-70
2023/09/03 13:03:35;;;;;;;5.78;2.55;;;;;;;;;;6320695;28;20052;-70
2023/09/03 13:06:38;;;;;;;6.07;3.10;;;;;;;;;;6317589;28;20089;-70
2023/09/03 13:09:40;;;;;;;6.75;2.63;;;;;;;;;;6328400;28;20051;-70
2023/09/03 13:12:44;;;;;;;4.82;2.60;;;;;;;;;;6303436;28;20099;-71
2023/09/03 13:15:46;;;;;;;4.50;2.63;;;;;;;;;;6316156;28;20065;-70
2023/09/03 13:18:49;;;;;;;4.40;2.95;;;;;;;;;;6320631;28;20047;-70
2023/09/03 13:21:52;;;;;;;4.75;2.40;;;;;;;;;;6320189;28;20067;-70
2023/09/03 13:24:54;;;;;;;5.70;3.33;;;;;;;;;;6318363;28;20036;-70
2023/09/03 13:27:57;;;;;;;4.45;2.63;;;;;;;;;;6320626;28;20917;-70
2023/09/03 13:31:01;;;;;;;;;;;;;;;;;;6316025;28;20052;-71
2023/09/03 13:34:12;;;;;;;5.53;3.47;;;;;;;;;;6314065;28;20643;-70
2023/09/03 13:37:15;;;;;;;5.93;2.88;;;;;;;;;;6317911;28;20052;-70
2023/09/03 13:40:17;;;;;;;6.93;3.38;;;;;;;;;;6305239;28;20509;-70
2023/09/03 13:43:22;;;;;;;5.40;2.55;;;;;;;;;;6323185;28;20055;-71
2023/09/03 13:46:29;;;;;;;5.07;2.90;;;;;;;;;;6326551;28;20039;-71
2023/09/03 13:49:31;;;;;;;4.20;2.53;;;;;;;;;;6333442;28;20434;-70
2023/09/03 13:52:35;;;;;;;4.38;2.80;;;;;;;;;;6312294;28;20646;-71
2023/09/03 13:55:39;;;;;;;7.07;3.08;;;;;;;;;;6355686;28;20036;-70
2023/09/03 13:58:41;;;;;;;4.85;3.13;;;;;;;;;;6336202;28;20144;-70
2023/09/03 14:01:44;;;;;;;5.20;2.60;;;;;;;;;;6331427;28;20048;-70
2023/09/03 14:04:48;;;;;;;4.00;2.65;;;;;;;;;;6333647;28;20040;-69
2023/09/03 14:07:50;;;;;;;4.40;2.35;;;;;;;;;;6323891;28;20408;-70
2023/09/03 14:10:57;;;;;;;7.95;2.60;;;;;;;;;;6321963;28;20052;-69
2023/09/03 14:14:02;;;;;;;6.03;2.55;;;;;;;;;;6321285;28;20043;-70
2023/09/03 14:17:05;;;;;;;5.53;2.80;;;;;;;;;;6324414;28;20657;-71
2023/09/03 14:20:08;;;;;;;4.72;2.58;;;;;;;;;;6327876;28;20130;-69
2023/09/03 14:23:10;;;;;;;6.75;3.13;;;;;;;;;;6318255;28;20052;-71
2023/09/03 14:26:15;;;;;;;3.95;2.42;;;;;;;;;;6334962;28;20121;-70
2023/09/03 14:29:18;;;;;;;4.53;2.33;;;;;;;;;;6323092;28;20052;-70
2023/09/03 14:32:21;;;;;;;4.78;2.53;;;;;;;;;;6308416;28;20446;-69
2023/09/03 14:35:23;;;;;;;4.47;2.47;;;;;;;;;;6321678;28;20048;-70
2023/09/03 14:38:25;;;;;;;6.28;2.90;;;;;;;;;;6318142;28;20044;-70
2023/09/03 14:41:27;;;;;;;4.07;2.40;;;;;;;;;;6312007;28;20059;-67
2023/09/03 14:44:29;;;;;;;4.45;2.40;;;;;;;;;;6318263;28;20090;-67
2023/09/03 14:47:31;;;;;;;4.20;2.65;;;;;;;;;;6317001;28;20046;-66
2023/09/03 14:50:34;;;;;;;5.20;2.83;;;;;;;;;;6319018;28;20059;-67
2023/09/03 14:53:36;;;;;;;4.18;2.38;;;;;;;;;;6318250;28;20048;-68
2023/09/03 14:56:39;;;;;;;4.15;2.60;;;;;;;;;;6322437;28;20063;-68
2023/09/03 14:59:45;;;;;;;5.20;2.50;;;;;;;;;;6313013;28;20820;-68
2023/09/03 15:02:47;;;;;;;5.15;3.08;;;;;;;;;;6322159;28;20089;-67
2023/09/03 15:05:49;;;;;;;4.30;2.65;;;;;;;;;;6314086;28;20040;-68
2023/09/03 15:08:51;;;;;;;4.00;2.10;;;;;;;;;;6314491;28;20047;-67
2023/09/03 15:11:55;;;;;;;4.70;2.97;;;;;;;;;;6295507;28;20511;-67
2023/09/03 15:14:58;;;;;;;4.60;2.47;;;;;;;;;;6316484;28;20047;-74
2023/09/03 15:18:02;;;;;;;4.85;2.50;;;;;;;;;;6294818;28;20044;-72
2023/09/03 15:21:05;;;;;;;7.32;2.25;;;;;;;;;;6317193;28;20050;-69
2023/09/03 15:24:07;;;;;;;4.93;2.58;;;;;;;;;;6320268;28;20187;-70
2023/09/03 15:27:10;;;;;;;4.28;2.35;;;;;;;;;;6313010;28;20044;-65
2023/09/03 15:30:12;;;;;;;4.55;2.60;;;;;;;;;;6303264;28;20044;-66
2023/09/03 15:33:15;;;;;;;4.40;2.50;;;;;;;;;;6308257;28;20736;-66
2023/09/03 15:36:17;;;;;;;4.45;3.30;;;;;;;;;;6308397;28;21056;-66
2023/09/03 15:39:19;;;;;;;4.60;3.20;;;;;;;;;;6311834;28;20051;-64
2023/09/03 15:42:21;;;;;;;5.30;3.03;;;;;;;;;;6323141;28;20040;-66
2023/09/03 15:45:23;;;;;;;4.72;3.03;;;;;;;;;;6311744;28;20816;-65
2023/09/03 15:48:25;;;;;;;5.68;2.60;;;;;;;;;;6312034;28;20126;-64
2023/09/03 15:51:28;;;;;;;4.70;3.33;;;;;;;;;;6310439;28;20434;-65
2023/09/03 15:54:30;;;;;;;5.95;3.22;;;;;;;;;;6310537;28;20040;-65
2023/09/03 15:57:32;;;;;;;5.13;2.72;;;;;;;;;;6311036;28;20204;-65
2023/09/03 16:00:38;;;;;;;5.75;2.92;;;;;;;;;;6308031;28;20047;-65
2023/09/03 16:03:41;;;;;;;5.60;3.17;;;;;;;;;;6309938;28;20048;-65
2023/09/03 16:06:43;;;;;;;5.35;3.05;;;;;;;;;;6310666;28;20048;-64
2023/09/03 16:09:45;;;;;;;4.68;3.13;;;;;;;;;;6294616;28;20217;-65
2023/09/03 16:12:48;;;;;;;6.35;3.17;;;;;;;;;;6293833;28;20165;-65
2023/09/03 16:15:51;;;;;;;7.53;3.00;;;;;;;;;;6308390;28;20074;-64
2023/09/03 16:18:53;;;;;;;6.65;3.80;;;;;;;;;;6311251;28;20048;-64
2023/09/03 16:21:55;;;;;;;6.35;3.78;;;;;;;;;;6311039;28;20059;-65
2023/09/03 16:24:57;;;;;;;4.40;2.58;;;;;;;;;;6311568;28;20707;-65
2023/09/03 16:28:00;;;;;;;6.53;3.05;;;;;;;;;;6311465;28;20055;-65
2023/09/03 16:31:02;;;;;;;4.95;3.00;;;;;;;;;;6305279;28;20779;-65
2023/09/03 16:34:05;;;;;;;5.63;2.75;;;;;;;;;;6312114;28;20048;-65
2023/09/03 16:37:07;;;;;;;6.05;2.60;;;;;;;;;;6310177;28;20048;-65
2023/09/03 16:40:11;;;;;;;4.63;3.25;;;;;;;;;;6310139;28;20059;-65
2023/09/03 16:43:13;;;;;;;7.97;3.47;;;;;;;;;;6311293;28;20146;-65
2023/09/03 16:46:18;;;;;;;6.22;2.92;;;;;;;;;;6310518;28;20181;-65
2023/09/03 16:49:20;;;;;;;7.63;3.25;;;;;;;;;;6312258;28;20055;-74
2023/09/03 16:52:23;;;;;;;4.25;2.50;;;;;;;;;;6312309;28;20548;-72
2023/09/03 16:55:26;;;;;;;4.85;3.33;;;;;;;;;;6320008;28;20074;-71
2023/09/03 16:58:28;;;;;;;5.20;2.85;;;;;;;;;;6311165;28;20114;-72
2023/09/03 17:01:30;;;;;;;5.35;2.70;;;;;;;;;;6292953;28;20766;-71
2023/09/03 17:04:32;;;;;;;5.13;3.05;;;;;;;;;;6311187;28;20048;-72
2023/09/03 17:07:34;;;;;;;5.35;3.35;;;;;;;;;;6292039;28;20060;-71
2023/09/03 17:10:37;;;;;;;5.18;3.13;;;;;;;;;;6315853;28;20441;-72
2023/09/03 17:13:39;;;;;;;6.03;4.13;;;;;;;;;;6312249;28;20036;-72
2023/09/03 17:16:41;;;;;;;5.20;3.08;;;;;;;;;;6333962;27;20047;-72
2023/09/03 17:19:44;;;;;;;4.90;2.75;;;;;;;;;;6319943;28;20666;-72
2023/09/03 17:22:46;;;;;;;7.35;2.78;;;;;;;;;;6313773;28;20551;-72
2023/09/03 17:25:48;;;;;;;5.70;2.80;;;;;;;;;;6321800;28;20068;-72
2023/09/03 17:28:57;;;;;;;6.20;3.80;;;;;;;;;;6298354;28;20044;-71
2023/09/03 17:31:59;;;;;;;10.13;3.10;;;;;;;;;;6307467;28;20096;-70
2023/09/03 17:35:04;;;;;;;4.07;2.45;;;;;;;;;;6303600;28;20044;-65
2023/09/03 17:38:07;;;;;;;8.10;3.88;;;;;;;;;;6317050;28;20093;-77
2023/09/03 17:41:09;;;;;;;6.07;3.55;;;;;;;;;;6307025;28;20462;-77
2023/09/03 17:44:15;;;;;;;8.15;3.35;;;;;;;;;;6262817;28;20048;-77
2023/09/03 17:47:17;;;;;;;5.85;3.70;;;;;;;;;;6294478;28;20055;-71
2023/09/03 17:50:19;;;;;;;7.03;3.30;;;;;;;;;;6293878;28;20047;-69
2023/09/03 17:53:21;;;;;;;5.15;2.92;;;;;;;;;;6309002;28;20849;-69
2023/09/03 17:56:24;;;;;;;4.55;3.17;;;;;;;;;;6312303;28;20055;-69
2023/09/03 17:59:26;;;;;;;7.22;3.28;;;;;;;;;;6312362;28;20541;-69
2023/09/03 18:02:28;;;;;;;6.75;3.28;;;;;;;;;;6309490;28;20108;-69
2023/09/03 18:05:31;;;;;;;5.88;3.17;;;;;;;;;;6304545;28;20967;-69
2023/09/03 18:08:33;;;;;;;6.03;3.47;;;;;;;;;;6310611;28;20052;-68
2023/09/03 18:11:36;;;;;;;5.85;3.42;;;;;;;;;;6311718;28;20048;-68
2023/09/03 18:14:38;;;;;;;5.85;3.65;;;;;;;;;;6312259;28;20058;-68
2023/09/03 18:17:40;;;;;;;5.22;3.67;;;;;;;;;;6311602;28;20047;-68
2023/09/03 18:20:42;;;;;;;5.93;2.47;;;;;;;;;;6312057;28;20131;-69
2023/09/03 18:23:46;;;;;;;5.65;2.72;;;;;;;;;;6312374;28;20063;-68
2023/09/03 18:26:50;;;;;;;4.88;3.72;;;;;;;;;;6311172;28;20129;-68
2023/09/03 18:29:53;;;;;;;4.93;2.67;;;;;;;;;;6308582;28;20091;-69